Time;durP1;ratioP1;P1;durP2;ratioP2;P2;SDS_P1;SDS_P2;PMS_P1;PMS_P2;Temp;Humidity;BMP_temperature;BMP_pressure;BME280_temperature;BME280_humidity;BME280_pressure;Samples;Min_cycle;Max_cycle;Signal;HPM_P1;HPM_P2
2024/02/15 00:01:22;;;;;;;7.63;4.45;;;;;;;;;;4943664;29;20490;-81
2024/02/15 00:03:49;;;;;;;5.82;3.72;;;;;;;;;;4958944;28;20023;-81
2024/02/15 00:06:15;;;;;;;8.45;4.45;;;;;;;;;;4943273;29;20721;-80
2024/02/15 00:08:40;;;;;;;5.75;4.03;;;;;;;;;;4944692;29;20059;-81
2024/02/15 00:11:09;;;;;;;6.20;4.20;;;;;;;;;;4944495;29;20036;-81
2024/02/15 00:13:35;;;;;;;7.43;4.03;;;;;;;;;;4928420;29;20494;-80
2024/02/15 00:16:01;;;;;;;6.53;3.60;;;;;;;;;;4927120;29;20400;-81
2024/02/15 00:18:27;;;;;;;7.43;4.28;;;;;;;;;;4943264;29;20091;-81
2024/02/15 00:20:53;;;;;;;5.88;3.53;;;;;;;;;;4927709;29;20130;-81
2024/02/15 00:23:18;;;;;;;6.95;3.92;;;;;;;;;;4927385;29;20050;-81
2024/02/15 00:25:44;;;;;;;5.45;3.63;;;;;;;;;;4943669;29;20034;-81
2024/02/15 00:28:11;;;;;;;6.20;4.10;;;;;;;;;;4942491;29;20031;-81
2024/02/15 00:30:37;;;;;;;7.03;4.38;;;;;;;;;;4943887;29;20505;-81
2024/02/15 00:33:02;;;;;;;6.22;3.65;;;;;;;;;;4943680;29;20028;-81
2024/02/15 00:35:28;;;;;;;5.28;3.60;;;;;;;;;;4974684;28;20363;-80
2024/02/15 00:37:54;;;;;;;8.02;3.85;;;;;;;;;;4943405;29;20043;-80
2024/02/15 00:40:20;;;;;;;6.18;3.75;;;;;;;;;;4943734;29;20035;-80
2024/02/15 00:42:46;;;;;;;5.47;3.33;;;;;;;;;;4931727;29;20024;-81
2024/02/15 00:45:12;;;;;;;6.13;3.63;;;;;;;;;;4926086;29;20032;-81
2024/02/15 00:47:38;;;;;;;6.40;3.30;;;;;;;;;;4925323;29;20035;-81
2024/02/15 00:50:07;;;;;;;4.90;3.03;;;;;;;;;;4941177;29;20047;-82
2024/02/15 00:52:33;;;;;;;7.63;2.75;;;;;;;;;;4940980;29;20559;-82
2024/02/15 00:54:59;;;;;;;4.18;2.47;;;;;;;;;;4939517;29;20039;-82
2024/02/15 00:57:24;;;;;;;5.80;3.30;;;;;;;;;;4927155;29;20031;-82
2024/02/15 00:59:51;;;;;;;4.93;3.10;;;;;;;;;;4923433;29;20039;-81
2024/02/15 01:02:17;;;;;;;5.07;3.15;;;;;;;;;;4922804;29;20403;-81
2024/02/15 01:04:45;;;;;;;6.28;3.75;;;;;;;;;;4923900;29;20393;-80
2024/02/15 01:07:11;;;;;;;5.60;2.50;;;;;;;;;;4938453;29;20028;-80
2024/02/15 01:09:36;;;;;;;4.35;2.58;;;;;;;;;;4922795;29;20090;-80
2024/02/15 01:12:05;;;;;;;6.85;2.90;;;;;;;;;;4924212;29;20027;-81
2024/02/15 01:14:31;;;;;;;5.50;3.25;;;;;;;;;;4927905;29;20472;-81
2024/02/15 01:16:57;;;;;;;4.28;2.50;;;;;;;;;;4924855;29;20516;-81
2024/02/15 01:19:23;;;;;;;5.55;2.47;;;;;;;;;;4924284;29;20031;-80
2024/02/15 01:21:49;;;;;;;5.97;2.80;;;;;;;;;;4971616;28;20078;-82
2024/02/15 01:24:14;;;;;;;4.57;2.60;;;;;;;;;;4971235;28;20451;-81
2024/02/15 01:26:40;;;;;;;6.82;2.60;;;;;;;;;;4954400;28;20046;-82
2024/02/15 01:29:05;;;;;;;3.92;2.38;;;;;;;;;;4954768;28;20028;-81
2024/02/15 01:31:31;;;;;;;3.70;2.13;;;;;;;;;;4958108;28;20035;-81
2024/02/15 01:33:57;;;;;;;3.92;2.40;;;;;;;;;;4956853;29;20030;-81
2024/02/15 01:36:23;;;;;;;4.70;2.25;;;;;;;;;;4957956;28;20039;-81
2024/02/15 01:38:49;;;;;;;8.48;2.15;;;;;;;;;;4943677;29;20039;-81
2024/02/15 01:41:14;;;;;;;5.38;2.35;;;;;;;;;;4960095;29;20238;-80
2024/02/15 01:43:44;;;;;;;4.05;2.13;;;;;;;;;;4942535;29;20501;-83
2024/02/15 01:46:10;;;;;;;5.03;1.92;;;;;;;;;;4963885;29;20097;-82
2024/02/15 01:48:37;;;;;;;3.08;1.85;;;;;;;;;;4943675;29;20028;-81
2024/02/15 01:51:03;;;;;;;4.13;2.35;;;;;;;;;;4946045;29;20039;-82
2024/02/15 01:53:30;;;;;;;3.50;2.00;;;;;;;;;;4932863;29;20431;-82
2024/02/15 01:55:57;;;;;;;5.10;2.28;;;;;;;;;;4931696;29;20067;-82
2024/02/15 01:58:25;;;;;;;3.20;1.90;;;;;;;;;;4915284;29;20031;-80
2024/02/15 02:00:51;;;;;;;4.22;1.90;;;;;;;;;;4928993;29;20124;-81
2024/02/15 02:03:17;;;;;;;4.28;2.03;;;;;;;;;;4912390;29;20550;-81
2024/02/15 02:05:43;;;;;;;3.53;1.73;;;;;;;;;;4923404;29;20027;-81
2024/02/15 02:08:09;;;;;;;5.38;1.90;;;;;;;;;;4954354;29;20060;-81
2024/02/15 02:10:36;;;;;;;4.00;1.92;;;;;;;;;;4921944;29;20028;-81
2024/02/15 02:13:02;;;;;;;3.90;1.50;;;;;;;;;;4906422;29;20491;-81
2024/02/15 02:15:31;;;;;;;4.13;2.30;;;;;;;;;;4952604;29;20094;-80
2024/02/15 02:17:58;;;;;;;3.73;1.90;;;;;;;;;;4957198;29;20034;-80
2024/02/15 02:20:25;;;;;;;3.33;1.80;;;;;;;;;;4928567;29;20036;-81
2024/02/15 02:22:55;;;;;;;3.60;1.58;;;;;;;;;;4921148;29;20035;-80
2024/02/15 02:25:20;;;;;;;4.40;1.35;;;;;;;;;;4926503;29;20028;-81
2024/02/15 02:27:47;;;;;;;2.05;1.30;;;;;;;;;;4925700;29;20031;-81
2024/02/15 02:30:21;;;;;;;2.35;1.30;;;;;;;;;;4920538;29;20044;-80
2024/02/15 02:32:47;;;;;;;2.53;1.40;;;;;;;;;;4920876;29;20475;-81
2024/02/15 02:35:13;;;;;;;2.28;1.15;;;;;;;;;;4936327;29;20042;-80
2024/02/15 02:37:39;;;;;;;2.30;1.40;;;;;;;;;;4936123;28;20063;-82
2024/02/15 02:40:08;;;;;;;1.70;1.08;;;;;;;;;;4904624;29;20027;-80
2024/02/15 02:42:33;;;;;;;;;;;;;;;;;;4905615;29;20083;-81
2024/02/15 02:44:59;;;;;;;2.13;1.48;;;;;;;;;;4939869;29;19911;-81
2024/02/15 02:47:25;;;;;;;2.10;1.00;;;;;;;;;;4932961;29;20044;-81
2024/02/15 02:49:50;;;;;;;2.90;1.05;;;;;;;;;;4916101;29;20036;-80
2024/02/15 02:52:17;;;;;;;3.80;1.35;;;;;;;;;;4919499;29;20032;-81
2024/02/15 02:54:43;;;;;;;2.17;1.10;;;;;;;;;;4928594;29;20035;-82
2024/02/15 02:57:09;;;;;;;4.90;0.93;;;;;;;;;;4928018;29;20023;-81
2024/02/15 02:59:35;;;;;;;3.90;1.10;;;;;;;;;;4947800;29;20099;-81
2024/02/15 03:02:01;;;;;;;1.70;0.90;;;;;;;;;;4945782;28;20067;-82
2024/02/15 03:04:27;;;;;;;1.65;0.90;;;;;;;;;;4944429;28;20660;-81
2024/02/15 03:06:55;;;;;;;3.17;1.02;;;;;;;;;;4975397;28;20479;-81
2024/02/15 03:09:22;;;;;;;1.75;1.00;;;;;;;;;;4922281;29;20028;-82
2024/02/15 03:11:49;;;;;;;1.42;0.80;;;;;;;;;;4922523;29;20040;-80
2024/02/15 03:14:15;;;;;;;2.72;0.90;;;;;;;;;;4937403;29;20662;-81
2024/02/15 03:16:41;;;;;;;1.55;0.80;;;;;;;;;;4921866;29;20034;-81
2024/02/15 03:19:09;;;;;;;2.50;0.95;;;;;;;;;;4922645;29;20032;-81
2024/02/15 03:21:35;;;;;;;1.77;0.80;;;;;;;;;;4908204;29;20035;-80
2024/02/15 03:24:03;;;;;;;1.98;0.90;;;;;;;;;;4910773;29;20042;-80
2024/02/15 03:26:31;;;;;;;1.30;0.90;;;;;;;;;;4914091;29;20028;-81
2024/02/15 03:28:56;;;;;;;2.50;0.95;;;;;;;;;;4930406;29;20036;-82
2024/02/15 03:31:22;;;;;;;1.77;0.90;;;;;;;;;;4930713;29;20059;-81
2024/02/15 03:33:49;;;;;;;1.17;0.70;;;;;;;;;;4930189;29;20036;-81
2024/02/15 03:36:18;;;;;;;1.60;0.80;;;;;;;;;;4931538;29;20048;-82
2024/02/15 03:38:44;;;;;;;1.88;0.88;;;;;;;;;;4933307;29;20062;-81
2024/02/15 03:41:10;;;;;;;4.38;1.02;;;;;;;;;;4934144;29;20134;-82
2024/02/15 03:43:36;;;;;;;1.60;0.70;;;;;;;;;;4949427;29;20061;-81
2024/02/15 03:46:01;;;;;;;1.73;0.77;;;;;;;;;;4951704;29;20038;-82
2024/02/15 03:48:27;;;;;;;1.98;0.88;;;;;;;;;;4951410;29;20128;-81
2024/02/15 03:50:52;;;;;;;1.77;1.02;;;;;;;;;;4952385;29;20094;-80
2024/02/15 03:53:18;;;;;;;1.65;0.90;;;;;;;;;;4935841;29;20047;-81
2024/02/15 03:55:44;;;;;;;3.17;1.42;;;;;;;;;;4954709;29;20039;-80
2024/02/15 03:58:10;;;;;;;1.77;0.90;;;;;;;;;;4954842;29;20067;-82
2024/02/15 04:00:35;;;;;;;1.50;0.90;;;;;;;;;;4952951;29;20075;-83
2024/02/15 04:03:01;;;;;;;1.55;0.93;;;;;;;;;;4954618;29;20036;-82
2024/02/15 04:05:27;;;;;;;2.80;1.02;;;;;;;;;;4952311;29;20109;-83
2024/02/15 04:07:53;;;;;;;2.10;1.00;;;;;;;;;;4951338;29;20031;-82
2024/02/15 04:10:19;;;;;;;2.50;0.95;;;;;;;;;;4953307;29;20035;-82
2024/02/15 04:12:56;;;;;;;1.67;0.82;;;;;;;;;;4952631;29;20035;-82
2024/02/15 04:15:22;;;;;;;2.17;1.10;;;;;;;;;;4950833;29;20031;-82
2024/02/15 04:17:48;;;;;;;1.65;1.00;;;;;;;;;;4965528;28;20074;-80
2024/02/15 04:20:15;;;;;;;1.52;0.85;;;;;;;;;;4947689;29;20073;-81
2024/02/15 04:22:44;;;;;;;2.15;1.02;;;;;;;;;;4950380;29;20027;-82
2024/02/15 04:25:10;;;;;;;2.00;0.90;;;;;;;;;;4964157;29;20027;-81
2024/02/15 04:27:36;;;;;;;2.00;1.00;;;;;;;;;;4947583;29;20031;-82
2024/02/15 04:30:02;;;;;;;3.25;1.00;;;;;;;;;;4947355;29;20046;-82
2024/02/15 04:32:28;;;;;;;2.67;1.17;;;;;;;;;;4948872;29;20035;-81
2024/02/15 04:34:54;;;;;;;3.13;1.27;;;;;;;;;;4948094;29;20035;-82
2024/02/15 04:37:20;;;;;;;3.10;1.02;;;;;;;;;;4935840;29;20557;-83
2024/02/15 04:39:47;;;;;;;1.33;0.80;;;;;;;;;;4951403;29;20031;-81
2024/02/15 04:42:13;;;;;;;1.30;0.88;;;;;;;;;;4951863;29;20126;-83
2024/02/15 04:44:40;;;;;;;2.15;1.00;;;;;;;;;;4953608;29;20038;-82
2024/02/15 04:47:06;;;;;;;2.05;0.90;;;;;;;;;;4970800;29;20035;-81
2024/02/15 04:49:32;;;;;;;2.45;1.10;;;;;;;;;;4971055;29;20050;-83
2024/02/15 04:51:58;;;;;;;2.03;1.10;;;;;;;;;;4939315;29;20042;-81
2024/02/15 04:54:23;;;;;;;1.98;0.93;;;;;;;;;;4952152;29;20055;-82
2024/02/15 04:56:53;;;;;;;2.47;1.00;;;;;;;;;;4955910;29;20035;-81
2024/02/15 04:59:21;;;;;;;3.67;1.30;;;;;;;;;;4940264;29;20038;-82
2024/02/15 05:01:46;;;;;;;2.25;1.10;;;;;;;;;;4939821;29;20042;-81
2024/02/15 05:04:13;;;;;;;2.92;1.50;;;;;;;;;;4973481;28;20039;-81
2024/02/15 05:06:40;;;;;;;3.58;1.60;;;;;;;;;;4962939;28;20054;-82
2024/02/15 05:09:10;;;;;;;2.05;1.10;;;;;;;;;;4982069;28;20039;-81
2024/02/15 05:11:46;;;;;;;3.10;1.60;;;;;;;;;;4958848;29;20032;-81
2024/02/15 05:14:17;;;;;;;2.05;1.25;;;;;;;;;;4973732;28;20065;-81
2024/02/15 05:16:43;;;;;;;4.10;1.65;;;;;;;;;;4958534;29;20035;-81
2024/02/15 05:19:12;;;;;;;5.80;2.03;;;;;;;;;;4957962;29;20035;-81
2024/02/15 05:21:38;;;;;;;3.45;1.48;;;;;;;;;;4957793;29;20043;-81
2024/02/15 05:24:05;;;;;;;2.75;1.38;;;;;;;;;;4959266;29;20032;-82
2024/02/15 05:26:31;;;;;;;3.47;1.40;;;;;;;;;;4951785;28;20064;-83
2024/02/15 05:28:58;;;;;;;2.72;1.38;;;;;;;;;;4935961;29;20046;-83
2024/02/15 05:31:26;;;;;;;8.38;2.45;;;;;;;;;;4935132;29;20499;-82
2024/02/15 05:33:53;;;;;;;1.70;1.10;;;;;;;;;;4934635;29;20051;-81
2024/02/15 05:36:25;;;;;;;3.28;1.30;;;;;;;;;;4953023;29;20118;-81
2024/02/15 05:38:54;;;;;;;2.20;1.30;;;;;;;;;;4935334;29;20082;-83
2024/02/15 05:41:24;;;;;;;1.83;1.10;;;;;;;;;;4923190;29;20070;-81
2024/02/15 05:44:09;;;;;;;2.78;1.17;;;;;;;;;;4953590;29;20125;-81
2024/02/15 05:46:40;;;;;;;;;;;;;;;;;;4968190;28;20031;-81
2024/02/15 05:49:06;;;;;;;2.85;1.38;;;;;;;;;;4934758;29;19922;-81
2024/02/15 05:51:33;;;;;;;2.20;1.02;;;;;;;;;;4936102;29;20048;-82
2024/02/15 05:54:02;;;;;;;3.30;1.70;;;;;;;;;;4953025;29;20039;-82
2024/02/15 05:56:29;;;;;;;2.60;1.40;;;;;;;;;;4937865;29;20082;-82
2024/02/15 05:58:55;;;;;;;5.88;1.80;;;;;;;;;;4936964;29;20046;-82
2024/02/15 06:01:23;;;;;;;3.50;1.70;;;;;;;;;;4936252;29;20063;-83
2024/02/15 06:03:49;;;;;;;3.92;2.05;;;;;;;;;;4971706;29;20102;-82
2024/02/15 06:06:16;;;;;;;2.60;1.40;;;;;;;;;;4970401;29;20039;-82
2024/02/15 06:08:46;;;;;;;3.45;1.90;;;;;;;;;;4954837;29;20031;-82
2024/02/15 06:11:15;;;;;;;5.80;2.08;;;;;;;;;;4987850;28;20038;-82
2024/02/15 06:13:41;;;;;;;3.10;1.40;;;;;;;;;;4955332;29;20031;-81
2024/02/15 06:16:09;;;;;;;3.05;1.67;;;;;;;;;;4973400;28;20123;-82
2024/02/15 06:18:37;;;;;;;3.50;1.20;;;;;;;;;;4956161;29;20107;-83
2024/02/15 06:21:03;;;;;;;2.30;1.33;;;;;;;;;;4944074;29;20032;-82
2024/02/15 06:23:30;;;;;;;2.63;1.40;;;;;;;;;;4954523;28;20042;-81
2024/02/15 06:26:02;;;;;;;3.17;1.45;;;;;;;;;;4952504;29;20038;-82
2024/02/15 06:39:44;;;;;;;5.15;1.67;;;;;;;;;;4968605;28;20050;-83
2024/02/15 06:42:11;;;;;;;3.40;1.90;;;;;;;;;;4936758;29;20454;-81
2024/02/15 06:44:38;;;;;;;2.92;1.67;;;;;;;;;;4945418;29;20032;-81
2024/02/15 06:47:04;;;;;;;4.20;2.00;;;;;;;;;;4929592;28;20101;-81
2024/02/15 06:49:30;;;;;;;4.32;1.77;;;;;;;;;;4947046;29;20118;-81
2024/02/15 06:51:56;;;;;;;4.30;1.70;;;;;;;;;;4929506;29;20134;-82
2024/02/15 06:54:22;;;;;;;3.83;1.73;;;;;;;;;;4948311;29;20035;-81
2024/02/15 06:56:54;;;;;;;4.40;1.40;;;;;;;;;;4963174;29;20129;-82
2024/02/15 06:59:22;;;;;;;5.15;1.85;;;;;;;;;;4948359;29;20059;-82
2024/02/15 07:01:52;;;;;;;3.38;1.55;;;;;;;;;;4948516;29;20043;-81
2024/02/15 07:04:19;;;;;;;3.20;1.80;;;;;;;;;;4959458;28;20027;-81
2024/02/15 07:06:47;;;;;;;3.35;1.60;;;;;;;;;;4949784;29;20032;-83
2024/02/15 07:09:15;;;;;;;5.20;1.90;;;;;;;;;;4949179;29;20064;-82
2024/02/15 07:11:46;;;;;;;2.92;1.50;;;;;;;;;;4969416;29;20040;-83
2024/02/15 07:14:15;;;;;;;2.78;1.48;;;;;;;;;;4936251;29;20074;-83
2024/02/15 07:16:45;;;;;;;3.17;1.60;;;;;;;;;;4935949;29;20031;-82
2024/02/15 07:19:11;;;;;;;3.47;1.70;;;;;;;;;;4959857;28;20032;-82
2024/02/15 07:21:39;;;;;;;5.07;1.65;;;;;;;;;;4935930;29;20059;-82
2024/02/15 07:24:05;;;;;;;4.18;2.20;;;;;;;;;;4940526;29;20023;-82
2024/02/15 07:26:32;;;;;;;4.85;1.77;;;;;;;;;;4953741;29;20063;-82
2024/02/15 07:28:58;;;;;;;4.40;2.10;;;;;;;;;;4936314;29;20023;-82
2024/02/15 07:31:31;;;;;;;3.30;1.88;;;;;;;;;;4950326;29;20103;-83
2024/02/15 07:33:59;;;;;;;5.20;2.38;;;;;;;;;;4948996;29;20028;-82
2024/02/15 07:36:25;;;;;;;3.80;1.92;;;;;;;;;;4933531;29;20095;-83
2024/02/15 07:38:53;;;;;;;5.93;2.53;;;;;;;;;;4963538;29;20030;-82
2024/02/15 07:41:23;;;;;;;4.43;2.10;;;;;;;;;;4930334;29;20051;-82
2024/02/15 07:43:51;;;;;;;3.92;2.08;;;;;;;;;;4946604;29;20083;-82
2024/02/15 07:46:17;;;;;;;6.85;2.30;;;;;;;;;;4945613;29;20079;-80
2024/02/15 07:48:46;;;;;;;5.43;1.98;;;;;;;;;;4940240;29;20051;-83
2024/02/15 07:51:15;;;;;;;3.67;2.40;;;;;;;;;;4969386;29;20410;-82
2024/02/15 07:53:42;;;;;;;5.80;2.13;;;;;;;;;;4954010;29;20042;-80
2024/02/15 07:56:10;;;;;;;4.60;2.30;;;;;;;;;;4937558;29;20054;-82
2024/02/15 07:58:41;;;;;;;9.85;3.30;;;;;;;;;;4952009;29;20049;-83
2024/02/15 08:01:08;;;;;;;4.57;2.38;;;;;;;;;;4936030;29;20035;-82
2024/02/15 08:03:35;;;;;;;5.65;2.40;;;;;;;;;;4961571;28;20024;-80
2024/02/15 08:06:01;;;;;;;5.00;2.63;;;;;;;;;;4945087;29;20467;-81
2024/02/15 08:08:26;;;;;;;6.90;2.28;;;;;;;;;;4931629;29;20036;-82
2024/02/15 08:10:52;;;;;;;7.15;2.45;;;;;;;;;;4931522;29;20042;-82
2024/02/15 08:13:22;;;;;;;5.57;2.17;;;;;;;;;;4936257;29;20062;-81
2024/02/15 08:15:52;;;;;;;8.43;2.28;;;;;;;;;;4949795;29;20099;-81
2024/02/15 08:18:18;;;;;;;4.03;2.05;;;;;;;;;;4934259;29;20023;-81
2024/02/15 08:20:45;;;;;;;4.38;2.17;;;;;;;;;;4946476;29;20046;-81
2024/02/15 08:23:10;;;;;;;7.40;2.42;;;;;;;;;;4939402;29;20040;-81
2024/02/15 08:25:41;;;;;;;4.65;2.38;;;;;;;;;;4952224;29;20042;-82
2024/02/15 08:28:07;;;;;;;6.85;1.95;;;;;;;;;;4952243;29;20031;-82
2024/02/15 08:30:33;;;;;;;5.40;2.78;;;;;;;;;;4951230;29;20134;-81
2024/02/15 08:32:59;;;;;;;10.65;2.25;;;;;;;;;;4968982;28;20494;-82
2024/02/15 08:35:26;;;;;;;5.50;2.05;;;;;;;;;;4952631;29;20043;-82
2024/02/15 08:37:53;;;;;;;5.43;2.63;;;;;;;;;;4952038;29;20171;-82
2024/02/15 08:40:24;;;;;;;5.20;2.30;;;;;;;;;;4946067;29;20031;-82
2024/02/15 08:42:51;;;;;;;6.88;2.45;;;;;;;;;;4944388;29;20031;-82
2024/02/15 08:45:19;;;;;;;5.70;2.28;;;;;;;;;;4973056;28;20043;-82
2024/02/15 08:47:46;;;;;;;8.52;3.47;;;;;;;;;;4948439;28;20040;-82
2024/02/15 08:50:12;;;;;;;7.15;2.78;;;;;;;;;;4938849;28;20093;-82
2024/02/15 08:52:39;;;;;;;6.55;2.30;;;;;;;;;;4967228;28;20042;-81
2024/02/15 08:55:14;;;;;;;6.68;2.67;;;;;;;;;;4954806;29;20027;-82
2024/02/15 08:57:40;;;;;;;8.02;3.72;;;;;;;;;;4954204;29;20031;-83
2024/02/15 09:00:13;;;;;;;9.15;3.55;;;;;;;;;;4954620;29;20028;-81
2024/02/15 09:02:40;;;;;;;7.60;3.65;;;;;;;;;;4942900;29;20058;-81
2024/02/15 09:05:06;;;;;;;8.40;3.83;;;;;;;;;;4965472;29;20035;-81
2024/02/15 09:07:32;;;;;;;8.07;3.65;;;;;;;;;;4965726;29;20027;-82
2024/02/15 09:09:57;;;;;;;5.05;2.45;;;;;;;;;;4953040;29;20035;-80
2024/02/15 09:12:24;;;;;;;6.82;2.42;;;;;;;;;;4956548;29;20031;-81
2024/02/15 09:14:51;;;;;;;5.38;2.58;;;;;;;;;;4972950;29;20086;-82
2024/02/15 09:17:17;;;;;;;7.53;2.55;;;;;;;;;;4941598;29;20027;-82
2024/02/15 09:19:43;;;;;;;10.32;2.65;;;;;;;;;;4937839;28;20042;-82
2024/02/15 09:22:09;;;;;;;6.88;2.13;;;;;;;;;;4950818;29;20030;-80
2024/02/15 09:24:38;;;;;;;4.45;2.00;;;;;;;;;;4939747;29;20051;-81
2024/02/15 09:27:06;;;;;;;5.70;2.47;;;;;;;;;;4969977;29;20042;-82
2024/02/15 09:29:33;;;;;;;8.07;2.45;;;;;;;;;;4951415;29;20048;-82
2024/02/15 09:32:02;;;;;;;6.38;2.35;;;;;;;;;;4950981;29;20115;-81
2024/02/15 09:34:28;;;;;;;5.03;2.45;;;;;;;;;;4944899;29;20111;-81
2024/02/15 09:36:55;;;;;;;5.68;2.15;;;;;;;;;;4948586;29;20055;-81
2024/02/15 09:39:22;;;;;;;7.03;2.40;;;;;;;;;;4945702;29;20103;-81
2024/02/15 09:41:55;;;;;;;5.60;2.17;;;;;;;;;;4954130;29;20042;-81
2024/02/15 09:44:21;;;;;;;5.50;1.90;;;;;;;;;;4956357;29;20400;-82
2024/02/15 09:46:51;;;;;;;5.03;2.25;;;;;;;;;;4972113;29;20031;-80
2024/02/15 09:49:17;;;;;;;;;;;;;;;;;;4974919;28;20028;-81
2024/02/15 09:51:45;;;;;;;4.50;1.60;;;;;;;;;;4953030;29;19958;-81
2024/02/15 09:54:19;;;;;;;4.30;1.88;;;;;;;;;;4967072;29;20027;-82
2024/02/15 09:56:45;;;;;;;5.22;1.67;;;;;;;;;;4915983;29;20044;-81
2024/02/15 09:59:12;;;;;;;4.03;2.00;;;;;;;;;;4957691;29;20046;-82
2024/02/15 10:01:40;;;;;;;4.40;2.00;;;;;;;;;;4983409;28;20031;-81
2024/02/15 10:04:08;;;;;;;2.53;1.58;;;;;;;;;;4965453;29;20038;-81
2024/02/15 10:06:33;;;;;;;4.03;1.65;;;;;;;;;;4936738;29;20034;-82
2024/02/15 10:09:19;;;;;;;3.05;1.67;;;;;;;;;;4967376;29;20077;-80
2024/02/15 10:11:56;;;;;;;6.63;2.20;;;;;;;;;;4934015;29;20116;-82
2024/02/15 10:14:22;;;;;;;7.38;1.70;;;;;;;;;;4947454;29;20031;-81
2024/02/15 10:16:50;;;;;;;5.13;1.73;;;;;;;;;;4963681;28;20040;-82
2024/02/15 10:19:18;;;;;;;3.70;1.77;;;;;;;;;;4945946;29;20062;-81
2024/02/15 10:21:48;;;;;;;6.10;2.22;;;;;;;;;;4954425;29;20039;-81
2024/02/15 10:24:19;;;;;;;6.30;2.88;;;;;;;;;;4937396;29;20064;-81
2024/02/15 10:26:49;;;;;;;5.70;2.50;;;;;;;;;;4983406;28;20099;-82
2024/02/15 10:29:17;;;;;;;4.85;1.67;;;;;;;;;;4944596;28;20035;-81
2024/02/15 10:31:54;;;;;;;7.15;2.60;;;;;;;;;;4945200;29;20048;-82
2024/02/15 10:34:21;;;;;;;7.50;2.13;;;;;;;;;;4930621;29;20143;-82
2024/02/15 10:36:47;;;;;;;8.77;2.50;;;;;;;;;;4945496;28;20070;-81
2024/02/15 10:39:19;;;;;;;5.03;2.03;;;;;;;;;;4959078;28;20114;-81
2024/02/15 10:41:46;;;;;;;7.07;2.72;;;;;;;;;;4986149;28;20091;-82
2024/02/15 10:44:15;;;;;;;4.45;1.52;;;;;;;;;;4939635;29;20039;-82
2024/02/15 10:46:41;;;;;;;10.10;2.55;;;;;;;;;;4985679;28;20030;-80
2024/02/15 10:49:08;;;;;;;7.50;2.20;;;;;;;;;;4939618;29;20031;-81
2024/02/15 10:51:36;;;;;;;6.75;2.20;;;;;;;;;;4940200;28;20031;-80
2024/02/15 10:54:06;;;;;;;4.93;1.90;;;;;;;;;;4954487;29;20039;-82
2024/02/15 10:56:37;;;;;;;4.40;1.60;;;;;;;;;;4940806;29;20039;-83
2024/02/15 10:59:04;;;;;;;5.85;1.65;;;;;;;;;;4957268;28;20031;-81
2024/02/15 11:01:32;;;;;;;6.07;1.93;;;;;;;;;;4980441;28;20057;-82
2024/02/15 11:04:00;;;;;;;5.00;1.85;;;;;;;;;;4957906;29;20035;-81
2024/02/15 11:06:27;;;;;;;5.35;2.05;;;;;;;;;;4988495;28;20038;-82
2024/02/15 11:08:53;;;;;;;6.50;2.40;;;;;;;;;;4950974;29;20028;-82
2024/02/15 11:11:22;;;;;;;10.35;2.13;;;;;;;;;;4951201;29;20047;-82
2024/02/15 11:13:48;;;;;;;4.35;1.52;;;;;;;;;;4944278;29;20027;-82
2024/02/15 11:16:34;;;;;;;3.60;1.58;;;;;;;;;;4938207;29;20120;-83
2024/02/15 11:19:03;;;;;;;8.82;1.50;;;;;;;;;;4967530;29;20051;-81
2024/02/15 11:21:50;;;;;;;3.78;1.63;;;;;;;;;;4960823;29;20030;-82
2024/02/15 11:24:32;;;;;;;2.50;1.33;;;;;;;;;;4944501;29;20027;-82
2024/02/15 11:27:02;;;;;;;8.13;2.65;;;;;;;;;;4943768;29;20515;-81
2024/02/15 11:29:47;;;;;;;3.90;1.67;;;;;;;;;;4969418;29;20033;-83
2024/02/15 11:32:33;;;;;;;3.35;1.80;;;;;;;;;;4942514;29;20034;-82
2024/02/15 11:35:10;;;;;;;4.90;1.70;;;;;;;;;;4961861;29;20031;-81
2024/02/15 11:37:55;;;;;;;3.88;1.58;;;;;;;;;;4971694;29;20065;-82
2024/02/15 11:40:22;;;;;;;5.88;1.60;;;;;;;;;;4977330;29;20061;-82
2024/02/15 11:42:53;;;;;;;4.35;1.58;;;;;;;;;;4979670;28;20035;-82
2024/02/15 11:45:21;;;;;;;9.32;2.22;;;;;;;;;;4979377;29;20083;-82
2024/02/15 11:48:18;;;;;;;4.15;1.25;;;;;;;;;;4949964;29;20071;-82
2024/02/15 11:51:11;;;;;;;8.60;1.90;;;;;;;;;;4970454;29;20091;-82
2024/02/15 11:53:39;;;;;;;5.82;2.08;;;;;;;;;;4976365;29;20028;-82
2024/02/15 11:56:05;;;;;;;3.40;1.40;;;;;;;;;;4977934;28;20012;-81
2024/02/15 11:58:41;;;;;;;5.45;1.75;;;;;;;;;;4940060;29;20039;-82
2024/02/15 12:20:32;;;;;;;5.18;1.40;;;;;;;;;;4966039;29;20026;-82
2024/02/15 12:23:00;;;;;;;3.28;1.38;;;;;;;;;;4946554;29;20048;-82
2024/02/15 12:25:27;;;;;;;6.00;1.33;;;;;;;;;;4958622;29;20044;-82
2024/02/15 12:27:55;;;;;;;6.03;1.30;;;;;;;;;;4942458;29;20031;-82
2024/02/15 12:30:25;;;;;;;4.60;1.52;;;;;;;;;;4941452;29;20079;-82
2024/02/15 12:32:51;;;;;;;6.20;1.60;;;;;;;;;;4983317;28;20039;-82
2024/02/15 12:36:07;;;;;;;5.45;1.40;;;;;;;;;;5082084;28;20499;-81
2024/02/15 12:38:37;;;;;;;6.20;1.33;;;;;;;;;;5034310;28;20021;-81
2024/02/15 12:41:22;;;;;;;3.90;1.20;;;;;;;;;;5034603;28;20034;-82
2024/02/15 12:43:52;;;;;;;3.47;1.20;;;;;;;;;;5014967;28;20081;-84
2024/02/15 12:46:19;;;;;;;2.92;1.42;;;;;;;;;;5030735;28;20018;-82
2024/02/15 12:48:45;;;;;;;2.80;1.23;;;;;;;;;;5032724;28;20018;-82
2024/02/15 12:51:15;;;;;;;2.65;1.10;;;;;;;;;;5029048;28;20017;-83
2024/02/15 12:53:43;;;;;;;4.70;1.25;;;;;;;;;;5041327;28;20531;-84
2024/02/15 12:56:09;;;;;;;3.65;1.30;;;;;;;;;;4998287;28;20030;-83
2024/02/15 12:58:35;;;;;;;5.30;1.25;;;;;;;;;;5036838;28;20416;-81
2024/02/15 13:01:04;;;;;;;4.18;1.73;;;;;;;;;;4990915;28;20030;-83
2024/02/15 13:03:32;;;;;;;4.35;1.33;;;;;;;;;;5010032;28;20026;-82
2024/02/15 13:05:58;;;;;;;1.73;0.95;;;;;;;;;;5004672;28;20069;-82
2024/02/15 13:08:24;;;;;;;4.75;1.25;;;;;;;;;;5023111;28;20021;-81
2024/02/15 13:10:51;;;;;;;2.30;1.10;;;;;;;;;;5018989;28;20093;-83
2024/02/15 13:13:20;;;;;;;4.63;1.30;;;;;;;;;;5014535;28;20496;-83
2024/02/15 13:15:46;;;;;;;6.00;1.52;;;;;;;;;;4970026;28;20383;-82
2024/02/15 13:18:13;;;;;;;83.65;41.33;;;;;;;;;;5022705;28;20030;-81
2024/02/15 13:20:40;;;;;;;6.90;1.58;;;;;;;;;;4985219;28;20041;-83
2024/02/15 13:23:14;;;;;;;2.97;1.25;;;;;;;;;;5021241;28;20135;-81
2024/02/15 13:25:43;;;;;;;4.13;1.20;;;;;;;;;;5002005;28;20038;-83
2024/02/15 13:28:10;;;;;;;;;;;;;;;;;;4999191;28;20064;-82
2024/02/15 13:30:36;;;;;;;5.43;1.25;;;;;;;;;;5017916;28;19910;-83
2024/02/15 13:33:03;;;;;;;2.40;1.17;;;;;;;;;;5004630;28;20022;-82
2024/02/15 13:35:31;;;;;;;3.83;1.50;;;;;;;;;;4968569;28;20141;-82
2024/02/15 13:38:00;;;;;;;3.40;1.30;;;;;;;;;;4990856;28;20045;-82
2024/02/15 13:40:27;;;;;;;9.57;2.13;;;;;;;;;;4999227;28;20041;-81
2024/02/15 13:43:16;;;;;;;4.15;1.40;;;;;;;;;;4995168;28;20034;-81
2024/02/15 13:45:44;;;;;;;4.00;1.33;;;;;;;;;;4991235;28;20022;-81
2024/02/15 13:48:16;;;;;;;4.97;1.52;;;;;;;;;;5001710;28;20007;-81
2024/02/15 13:50:44;;;;;;;7.60;1.75;;;;;;;;;;4986029;28;20022;-83
2024/02/15 13:53:14;;;;;;;4.18;1.30;;;;;;;;;;5022584;28;20026;-81
2024/02/15 13:55:41;;;;;;;3.63;1.58;;;;;;;;;;5017048;28;20038;-82
2024/02/15 13:58:12;;;;;;;5.22;1.20;;;;;;;;;;5002010;28;20011;-83
2024/02/15 14:00:44;;;;;;;7.30;1.45;;;;;;;;;;4990078;28;20030;-82
2024/02/15 14:03:15;;;;;;;5.13;1.05;;;;;;;;;;4984945;28;20049;-82
2024/02/15 14:05:47;;;;;;;3.45;1.20;;;;;;;;;;4984604;28;20047;-81
2024/02/15 14:08:13;;;;;;;2.15;1.05;;;;;;;;;;5014236;28;20038;-82
2024/02/15 14:10:40;;;;;;;5.65;1.50;;;;;;;;;;5000126;28;20046;-81
2024/02/15 14:13:11;;;;;;;2.97;1.10;;;;;;;;;;5012466;28;20030;-83
2024/02/15 14:15:38;;;;;;;7.28;1.10;;;;;;;;;;5013835;28;20046;-81
2024/02/15 14:18:05;;;;;;;5.82;1.30;;;;;;;;;;4998974;28;20035;-81
2024/02/15 14:20:32;;;;;;;3.15;1.13;;;;;;;;;;4970325;28;20053;-81
2024/02/15 14:23:03;;;;;;;2.45;1.20;;;;;;;;;;4993130;28;20038;-81
2024/02/15 14:25:31;;;;;;;1.83;0.90;;;;;;;;;;5010990;28;20030;-82
2024/02/15 14:27:58;;;;;;;3.58;0.90;;;;;;;;;;5000171;28;20026;-82
2024/02/15 14:33:15;;;;;;;1.88;0.90;;;;;;;;;;4995808;28;20025;-82
2024/02/15 14:35:42;;;;;;;2.22;0.70;;;;;;;;;;4973169;28;20030;-81
2024/02/15 14:38:10;;;;;;;4.05;1.20;;;;;;;;;;5018726;28;20074;-82
2024/02/15 14:40:40;;;;;;;8.88;1.17;;;;;;;;;;4996727;28;20088;-82
2024/02/15 14:43:12;;;;;;;2.05;1.00;;;;;;;;;;5014837;28;20041;-83
2024/02/15 14:45:42;;;;;;;2.13;0.88;;;;;;;;;;4999910;28;20049;-81
2024/02/15 14:48:09;;;;;;;3.03;1.10;;;;;;;;;;5008613;28;20090;-81
2024/02/15 14:50:39;;;;;;;2.05;1.00;;;;;;;;;;4994942;28;20027;-82
2024/02/15 14:53:07;;;;;;;5.82;1.40;;;;;;;;;;4977315;28;20031;-82
2024/02/15 14:55:42;;;;;;;2.70;1.00;;;;;;;;;;4990267;28;20037;-82
2024/02/15 14:58:08;;;;;;;2.33;0.85;;;;;;;;;;5007432;28;20535;-81
2024/02/15 15:00:37;;;;;;;4.57;0.70;;;;;;;;;;4975169;28;20061;-82
2024/02/15 15:03:03;;;;;;;1.88;0.85;;;;;;;;;;5011994;28;20057;-81
2024/02/15 15:13:43;;;;;;;1.73;0.85;;;;;;;;;;5026038;28;20045;-82
2024/02/15 15:16:14;;;;;;;2.30;1.10;;;;;;;;;;4993205;28;20045;-81
2024/02/15 15:18:41;;;;;;;2.72;1.10;;;;;;;;;;5010995;28;20049;-83
2024/02/15 15:21:09;;;;;;;1.50;0.90;;;;;;;;;;4996708;28;20065;-81
2024/02/15 15:23:39;;;;;;;1.90;1.00;;;;;;;;;;4996729;28;20046;-81
2024/02/15 15:26:10;;;;;;;2.42;1.08;;;;;;;;;;4995859;28;20050;-82
2024/02/15 15:28:39;;;;;;;1.15;0.82;;;;;;;;;;4999551;28;20026;-83
2024/02/15 15:31:13;;;;;;;4.03;1.17;;;;;;;;;;5012859;28;20018;-82